Gold Country Challenge - Loft Flight Inventory

Station: Loft Fly - T Race

Distance: 5 Miles    

Release: 17-Jul-2017 06:15

Weather Release:    Arrival:

Wind at Release:     Wind at Arrival:

Temp at Release: °    Temp at Arrival: °

Lofts: 92

Birds: 423

Clocked: 423

Loft Flight and Inventory. Training begins mid August
Drops Pos Breeder Pigeon Name Color Sex Ent Arrival Speed To Win Eligible Champ
401 John Partridge - CA 0548-AU17-PASO BB H 5 09:29:49.80 45.168 02:14:26 Yes
402 Smith R P L - UT 3080-AU17-SRPL BC H 4 09:38:05.90 43.329 02:22:42 Yes
403 Dream Team - VT 0341-AU17-JCZL 6805 x 132 BC H 12 09:38:08.40 43.320 02:22:45 Yes
404 Euro Dead - CA 6634-AU17-FSC BCWF H 5 09:42:23.50 42.432 02:27:00 Yes
405 Bieche-Stevenson - CA 7233-AU17-BIE DC H 5 09:42:41.60 42.370 02:27:18 Yes
406 Refried Dreams - AZ 0471-AU17-PSC BB H 1 09:42:51.70 42.336 02:27:28 Yes
407 America's Dream Loft - IL 0085-AU17-ADL BC H 5 09:43:07.40 42.283 02:27:43 Yes
408 Genesis Syndicate Loft - AZ 0361-AU17-GEN DC H 11 09:45:02.80 41.895 02:29:39 Yes
409 Barrett Family Loft - IL 0014-AU17-BARR BB H 10 09:45:11.40 41.867 02:29:48 Yes
410 K B Loft - CA 20117-AU17-JEDD BC H 2 09:45:29.60 41.807 02:30:06 Yes
411 Cain & Page - CA 9601-AU17-FSC SLT H 2 09:45:52.90 41.730 02:30:29 Yes
412 Racing Pigeon Mall - WA 0704-AU17-RPM BB H 3 09:46:16.70 41.651 02:30:53 Yes
413 Goshentown Lofts - TN 3421-AU17-VITA BB H 9 09:46:55.30 41.525 02:31:31 Yes
414 Dennis Bisnett - CA 0904-AU17-ML BC C 3 09:47:30.40 41.410 02:32:07 Yes
415 Euro Dead - CA 6609-AU17-FSC BB H 6 09:48:44.80 41.170 02:33:21 Yes
416 Flying W - CA 0526-AU17-AUB GRIZ H 6 09:49:20.80 41.055 02:33:57 Yes
417 Skylinerpl.Com - UT 0901-AU17-UVI "Pouw Girl" BB H 7 09:51:16.80 40.688 02:35:53 Yes
418 Sierra Ranch - CA 0777-AU17-SR SLT H 6 09:57:55.10 39.476 02:42:31 Yes
419 Refried Dreams - AZ 0083-AU17-RFRY BB H 2 09:58:24.40 39.390 02:43:01 Yes
420 California Breeders Syndicate - CA 4583-AU17-AA RC H 8 10:00:37.20 39.004 02:45:13 Yes
421 Sierra Ranch - CA 1789-AU17-SR BB H 7 10:01:20.10 38.880 02:45:56 Yes
422 Richard Callahan - MO 1680-AU17-AA BB H 5 10:02:27.40 38.689 02:47:03 Yes
423 America's Dream Loft - IL 0080-AU17-ADL BB H 6 10:06:53.60 37.948 02:51:30 Yes

There are 420 bird records

Note: These Race Results are unofficial and subject to change until verified by the Race Committee and declared final.